createdAt,value
2022-08-01T00:00:08.708Z,1.00
2022-08-01T00:02:36.378Z,1.00
2022-08-01T00:05:03.203Z,1.00
2022-08-01T00:07:29.893Z,1.00
2022-08-01T00:09:56.639Z,1.00
2022-08-01T00:12:23.459Z,1.00
2022-08-01T00:14:50.148Z,1.00
2022-08-01T00:17:17.013Z,1.00
2022-08-01T00:19:43.828Z,1.00
2022-08-01T00:22:10.500Z,1.00
2022-08-01T00:24:37.227Z,1.00
2022-08-01T00:27:04.166Z,1.00
2022-08-01T00:30:11.811Z,1.00
2022-08-01T00:32:17.609Z,1.00
2022-08-01T00:34:44.352Z,1.00
2022-08-01T00:37:14.094Z,1.00
2022-08-01T00:39:43.384Z,1.00
2022-08-01T00:42:12.353Z,1.00
2022-08-01T00:44:39.787Z,1.00
2022-08-01T00:47:07.379Z,1.00
2022-08-01T00:49:34.486Z,1.00
2022-08-01T00:52:02.215Z,1.00
2022-08-01T00:54:29.428Z,1.00
2022-08-01T00:56:57.068Z,1.00
2022-08-01T00:59:25.840Z,1.00
2022-08-01T01:01:53.655Z,99.90
2022-08-01T01:04:21.007Z,99.90
2022-08-01T01:07:06.416Z,99.90
2022-08-01T01:09:40.546Z,99.90
2022-08-01T01:12:25.879Z,99.90
2022-08-01T01:15:14.320Z,99.90
2022-08-01T01:18:01.576Z,99.90
2022-08-01T01:20:40.926Z,99.90
2022-08-01T01:23:13.592Z,99.90
2022-08-01T01:26:10.778Z,99.90
2022-08-01T01:29:01.185Z,99.90
2022-08-01T01:31:29.654Z,99.90
2022-08-01T01:34:00.325Z,99.90
2022-08-01T01:36:28.087Z,99.90
2022-08-01T01:38:56.050Z,99.90
2022-08-01T01:41:24.134Z,99.90
2022-08-01T01:43:51.870Z,99.90
2022-08-01T01:46:23.629Z,99.90
2022-08-01T01:48:51.178Z,99.90
2022-08-01T01:51:19.710Z,99.90
2022-08-01T01:53:47.733Z,99.90
2022-08-01T01:56:17.304Z,99.90
2022-08-01T01:58:45.155Z,99.90
2022-08-01T02:01:14.711Z,99.90
2022-08-01T02:03:44.237Z,1.00
2022-08-01T02:06:14.697Z,1.00
2022-08-01T02:08:43.906Z,1.00
2022-08-01T02:11:19.947Z,1.00
2022-08-01T02:13:57.649Z,1.00
2022-08-01T02:16:27.071Z,1.00
2022-08-01T02:18:54.177Z,1.00
2022-08-01T02:21:28.195Z,1.00
2022-08-01T02:24:01.621Z,1.00
2022-08-01T02:26:31.939Z,1.00
2022-08-01T02:29:03.410Z,1.00
2022-08-01T02:31:33.153Z,1.00
2022-08-01T02:34:10.320Z,1.00
2022-08-01T02:36:38.388Z,1.00
2022-08-01T02:39:10.280Z,1.00
2022-08-01T02:41:43.216Z,1.00
2022-08-01T02:44:14.644Z,1.00
2022-08-01T02:46:49.896Z,1.00
2022-08-01T02:49:20.266Z,1.00
2022-08-01T02:51:49.190Z,1.00
2022-08-01T02:54:19.041Z,1.00
2022-08-01T02:56:47.997Z,1.00
2022-08-01T02:59:20.447Z,1.00
2022-08-01T03:01:50.895Z,1.00
2022-08-01T03:04:20.622Z,99.90
2022-08-01T03:06:48.070Z,99.90
2022-08-01T03:09:16.684Z,99.90
2022-08-01T03:11:45.312Z,99.90
2022-08-01T03:14:13.710Z,99.90
2022-08-01T03:16:43.012Z,99.90
2022-08-01T03:19:12.354Z,99.90
2022-08-01T03:21:41.673Z,99.90
2022-08-01T03:24:10.779Z,99.90
2022-08-01T03:26:40.032Z,99.90
2022-08-01T03:29:11.475Z,99.90
2022-08-01T03:31:43.631Z,99.90
2022-08-01T03:34:10.797Z,99.90
2022-08-01T03:37:01.635Z,99.90
2022-08-01T03:39:34.833Z,99.90
2022-08-01T03:42:11.013Z,99.90
2022-08-01T03:44:40.196Z,99.90
2022-08-01T03:47:09.845Z,99.90
2022-08-01T03:49:42.848Z,99.90
2022-08-01T03:52:10.461Z,99.90
2022-08-01T03:54:41.739Z,99.90
2022-08-01T03:57:34.859Z,99.90
2022-08-01T03:59:59.294Z,99.90
2022-08-01T04:02:29.972Z,99.90
2022-08-01T04:04:56.991Z,99.90
2022-08-01T04:07:30.225Z,99.90
2022-08-01T04:09:57.674Z,99.90
2022-08-01T04:12:25.265Z,32.80
2022-08-01T04:14:52.162Z,1.00
2022-08-01T04:17:19.454Z,1.00
2022-08-01T04:19:46.277Z,1.00
2022-08-01T04:22:15.324Z,1.00
2022-08-01T04:24:45.716Z,1.00
2022-08-01T04:27:16.417Z,1.00
2022-08-01T04:29:43.872Z,1.00
2022-08-01T04:32:13.624Z,1.00
2022-08-01T04:34:44.072Z,1.00
2022-08-01T04:37:13.278Z,1.00
2022-08-01T04:39:51.077Z,1.00
2022-08-01T04:42:28.120Z,1.00
2022-08-01T04:45:00.533Z,1.00
2022-08-01T04:47:27.959Z,1.00
2022-08-01T04:49:55.021Z,1.00
2022-08-01T04:52:24.776Z,1.00
2022-08-01T04:54:51.663Z,1.00
2022-08-01T04:57:18.314Z,1.00
2022-08-01T04:59:45.372Z,1.00
2022-08-01T05:02:13.934Z,20.60
2022-08-01T05:04:41.845Z,1.00
2022-08-01T05:07:09.235Z,1.00
2022-08-01T05:09:39.184Z,1.00
2022-08-01T05:12:07.268Z,1.00
2022-08-01T05:14:34.909Z,1.00
2022-08-01T05:17:04.876Z,1.00
2022-08-01T05:19:35.744Z,1.00
2022-08-01T05:22:05.734Z,1.00
2022-08-01T05:24:33.790Z,1.00
2022-08-01T05:27:03.391Z,1.00
2022-08-01T05:29:33.728Z,1.00
2022-08-01T05:32:00.558Z,1.00
2022-08-01T05:34:27.697Z,1.00
2022-08-01T05:36:57.924Z,99.90
2022-08-01T05:39:24.791Z,99.90
2022-08-01T05:41:51.483Z,99.90
2022-08-01T05:44:18.210Z,99.90
2022-08-01T05:46:44.934Z,99.90
2022-08-01T05:49:11.699Z,99.90
2022-08-01T05:51:38.404Z,99.90
2022-08-01T05:54:05.158Z,99.90
2022-08-01T05:56:32.476Z,99.90
2022-08-01T05:58:59.424Z,99.90
2022-08-01T06:01:26.213Z,99.90
2022-08-01T06:03:55.109Z,99.90
2022-08-01T06:06:25.490Z,99.90
2022-08-01T06:08:52.939Z,99.90
2022-08-01T06:11:19.762Z,17.50
2022-08-01T06:13:48.645Z,1.00
2022-08-01T06:16:16.408Z,1.00
2022-08-01T06:18:43.136Z,1.00
2022-08-01T06:21:09.955Z,1.00
2022-08-01T06:23:36.780Z,1.00
2022-08-01T06:26:03.556Z,1.00
2022-08-01T06:28:30.503Z,1.00
2022-08-01T06:30:59.355Z,1.00
2022-08-01T06:33:26.753Z,1.00
2022-08-01T06:35:53.648Z,1.00
2022-08-01T06:38:20.438Z,1.00
2022-08-01T06:40:47.189Z,1.00
2022-08-01T06:43:13.912Z,1.00
2022-08-01T06:45:41.431Z,1.00
2022-08-01T06:48:08.132Z,1.00
2022-08-01T06:50:36.710Z,1.00
2022-08-01T06:53:03.692Z,1.00
2022-08-01T06:55:30.877Z,1.00
2022-08-01T06:57:57.609Z,1.00
2022-08-01T07:00:25.921Z,1.00
2022-08-01T07:02:54.245Z,99.90
2022-08-01T07:05:22.061Z,99.90
2022-08-01T07:07:48.951Z,99.90
2022-08-01T07:10:15.900Z,99.90
2022-08-01T07:12:42.778Z,99.90
2022-08-01T07:15:10.961Z,99.90
2022-08-01T07:17:42.145Z,99.90
2022-08-01T07:20:13.986Z,99.90
2022-08-01T07:22:43.364Z,99.90
2022-08-01T07:25:10.398Z,99.90
2022-08-01T07:27:38.035Z,99.90
2022-08-01T07:30:06.284Z,99.90
2022-08-01T07:32:33.046Z,99.90
2022-08-01T07:35:00.335Z,99.90
2022-08-01T07:37:48.209Z,99.90
2022-08-01T07:40:14.324Z,99.90
2022-08-01T07:42:44.308Z,99.90
2022-08-01T07:45:12.113Z,99.90
2022-08-01T07:47:39.017Z,99.90
2022-08-01T07:50:07.408Z,99.90
2022-08-01T07:52:34.143Z,99.90
2022-08-01T07:55:00.859Z,99.90
2022-08-01T07:57:27.520Z,99.90
2022-08-01T07:59:54.196Z,99.90
2022-08-01T08:02:20.967Z,99.90
2022-08-01T08:04:49.246Z,99.90
2022-08-01T08:07:16.582Z,99.90
2022-08-01T08:09:43.402Z,99.90
2022-08-01T08:12:10.785Z,99.90
2022-08-01T08:14:38.176Z,99.90
2022-08-01T08:17:06.183Z,99.90
2022-08-01T08:19:37.738Z,99.90
2022-08-01T08:22:09.891Z,99.90
2022-08-01T08:24:44.153Z,99.90
2022-08-01T08:27:12.728Z,99.90
2022-08-01T08:29:39.683Z,99.90
2022-08-01T08:32:07.131Z,99.90
2022-08-01T08:34:33.957Z,99.90
2022-08-01T08:37:00.995Z,99.90
2022-08-01T08:39:28.065Z,99.90
2022-08-01T08:41:55.016Z,99.90
2022-08-01T08:44:22.039Z,99.90
2022-08-01T08:46:52.137Z,99.90
2022-08-01T08:49:22.236Z,99.90
2022-08-01T08:51:51.250Z,99.90
2022-08-01T08:54:21.622Z,99.90
2022-08-01T08:56:48.899Z,92.60
2022-08-01T08:59:15.915Z,99.90
2022-08-01T09:01:43.448Z,99.90
2022-08-01T09:04:11.663Z,96.80
2022-08-01T09:06:39.327Z,94.40
2022-08-01T09:09:07.577Z,69.40
2022-08-01T09:11:35.512Z,92.90
2022-08-01T09:14:09.278Z,83.30
2022-08-01T09:16:38.041Z,41.70
2022-08-01T09:19:15.988Z,26.50
2022-08-01T09:21:57.998Z,10.60
2022-08-01T09:24:28.446Z,1.00
2022-08-01T09:26:58.414Z,1.00
2022-08-01T09:29:35.385Z,1.00
2022-08-01T09:32:08.836Z,1.00
2022-08-01T09:34:43.176Z,1.00
2022-08-01T09:37:10.611Z,1.00
2022-08-01T09:39:41.174Z,1.00
2022-08-01T09:42:28.898Z,1.00
2022-08-01T09:44:56.723Z,1.00
2022-08-01T09:47:38.907Z,1.00
2022-08-01T09:50:10.793Z,1.00
2022-08-01T09:52:40.853Z,1.00
2022-08-01T09:55:08.675Z,1.00
2022-08-01T09:57:35.631Z,1.00
2022-08-01T10:00:03.905Z,1.00
2022-08-01T10:02:41.044Z,1.00
2022-08-01T10:05:10.691Z,1.00
2022-08-01T10:08:02.254Z,1.00
2022-08-01T10:10:34.555Z,1.00
2022-08-01T10:13:05.105Z,1.00
2022-08-01T10:15:36.944Z,1.00
2022-08-01T10:18:16.363Z,1.00
2022-08-01T10:20:48.678Z,1.00
2022-08-01T10:23:16.346Z,1.00
2022-08-01T10:25:46.936Z,12.90
2022-08-01T10:28:23.839Z,9.50
2022-08-01T10:30:52.094Z,1.00
2022-08-01T10:33:50.427Z,8.80
2022-08-01T10:36:10.576Z,1.00
2022-08-01T10:38:37.708Z,11.60
2022-08-01T10:41:06.838Z,5.80
2022-08-01T10:43:36.259Z,1.00
2022-08-01T10:46:04.959Z,1.00
2022-08-01T10:48:57.415Z,1.00
2022-08-01T10:51:51.940Z,1.00
2022-08-01T10:54:14.475Z,1.00
2022-08-01T10:56:43.909Z,1.00
2022-08-01T10:59:11.807Z,1.00
2022-08-01T11:01:45.046Z,1.00
2022-08-01T11:04:17.356Z,1.00
2022-08-01T11:06:55.453Z,1.00
2022-08-01T11:09:42.654Z,1.00
2022-08-01T11:12:23.618Z,1.00
2022-08-01T11:15:00.535Z,1.00
2022-08-01T11:17:49.602Z,1.00
2022-08-01T11:20:41.620Z,1.00
2022-08-01T11:23:11.609Z,1.00
2022-08-01T11:26:03.882Z,1.00
2022-08-01T11:28:34.572Z,1.00
2022-08-01T11:31:11.300Z,1.00
2022-08-01T11:33:46.229Z,1.00
2022-08-01T11:36:14.784Z,1.00
2022-08-01T11:38:44.843Z,1.00
2022-08-01T11:41:37.084Z,1.00
2022-08-01T11:44:26.177Z,1.00
2022-08-01T11:47:03.100Z,1.00
2022-08-01T11:49:50.312Z,1.00
2022-08-01T11:52:20.598Z,1.00
2022-08-01T11:54:54.418Z,1.00
2022-08-01T11:57:24.223Z,1.00
2022-08-01T12:00:08.684Z,1.00
2022-08-01T12:02:42.093Z,1.00
2022-08-01T12:05:12.894Z,1.00
2022-08-01T12:07:42.749Z,1.00
2022-08-01T12:10:10.815Z,1.00
2022-08-01T12:12:46.153Z,1.00
2022-08-01T12:15:14.010Z,1.00
2022-08-01T12:17:47.174Z,1.00
2022-08-01T12:20:31.172Z,1.00
2022-08-01T12:23:00.451Z,1.00
2022-08-01T12:25:27.317Z,1.00
2022-08-01T12:27:56.465Z,1.00
2022-08-01T12:30:25.132Z,1.00
2022-08-01T12:32:53.275Z,1.00
2022-08-01T12:35:23.966Z,1.00
2022-08-01T12:37:59.821Z,1.00
2022-08-01T12:40:30.373Z,1.00
2022-08-01T12:43:05.708Z,1.00
2022-08-01T12:45:37.334Z,1.00
2022-08-01T12:48:09.700Z,1.00
2022-08-01T12:50:39.210Z,1.00
2022-08-01T12:53:07.109Z,1.00
2022-08-01T12:55:34.846Z,1.00
2022-08-01T12:58:16.079Z,1.00
2022-08-01T13:00:45.895Z,1.00
2022-08-01T13:03:18.590Z,1.00
2022-08-01T13:05:51.226Z,1.00
2022-08-01T13:08:32.869Z,1.00
2022-08-01T13:11:05.700Z,1.00
2022-08-01T13:13:49.942Z,1.00
2022-08-01T13:16:34.290Z,1.00
2022-08-01T13:19:06.616Z,1.00
2022-08-01T13:21:52.107Z,1.00
2022-08-01T13:24:28.660Z,1.00
2022-08-01T13:27:00.833Z,1.00
2022-08-01T13:29:42.053Z,1.00
2022-08-01T13:32:27.775Z,1.00
2022-08-01T13:35:05.653Z,1.00
2022-08-01T13:37:32.574Z,1.00
2022-08-01T13:39:59.794Z,1.00
2022-08-01T13:42:26.491Z,1.00
2022-08-01T13:44:53.352Z,1.00
2022-08-01T13:47:31.635Z,1.00
2022-08-01T13:50:02.942Z,1.00
2022-08-01T13:52:30.144Z,1.00
2022-08-01T13:54:56.939Z,1.00
2022-08-01T13:57:23.808Z,1.00
2022-08-01T13:59:50.515Z,1.00
2022-08-01T14:02:17.271Z,1.00
2022-08-01T14:04:43.943Z,1.00
2022-08-01T14:07:14.648Z,1.00
2022-08-01T14:10:04.525Z,1.00
2022-08-01T14:12:29.068Z,1.00
2022-08-01T14:14:55.793Z,1.00
2022-08-01T14:17:22.560Z,1.00
2022-08-01T14:19:49.478Z,1.00
2022-08-01T14:22:16.285Z,1.00
2022-08-01T14:24:43.121Z,1.00
2022-08-01T14:27:10.493Z,1.00
2022-08-01T14:30:02.978Z,1.00
2022-08-01T14:32:26.017Z,1.00
2022-08-01T14:34:55.533Z,1.00
2022-08-01T14:37:22.375Z,1.00
2022-08-01T14:40:01.030Z,1.00
2022-08-01T14:42:29.336Z,1.00
2022-08-01T14:44:56.121Z,1.00
2022-08-01T14:47:22.900Z,1.00
2022-08-01T14:49:51.505Z,1.00
2022-08-01T14:52:18.413Z,1.00
2022-08-01T14:54:45.064Z,1.00
2022-08-01T14:57:11.931Z,1.00
2022-08-01T14:59:38.642Z,1.00
2022-08-01T15:02:05.570Z,1.00
2022-08-01T15:04:32.409Z,1.00
2022-08-01T15:06:59.120Z,1.00
2022-08-01T15:09:25.796Z,1.00
2022-08-01T15:11:52.541Z,1.00
2022-08-01T15:14:38.105Z,1.00
2022-08-01T15:17:04.804Z,1.00
2022-08-01T15:19:31.472Z,1.00
2022-08-01T15:21:58.194Z,1.00
2022-08-01T15:24:26.068Z,1.00
2022-08-01T15:26:52.748Z,1.00
2022-08-01T15:29:19.740Z,1.00
2022-08-01T15:31:46.561Z,1.00
2022-08-01T15:34:13.257Z,1.00
2022-08-01T15:36:42.096Z,1.00
2022-08-01T15:39:13.698Z,1.00
2022-08-01T15:41:40.370Z,1.00
2022-08-01T15:44:07.222Z,1.00
2022-08-01T15:46:34.014Z,1.00
2022-08-01T15:49:05.532Z,1.00
2022-08-01T15:51:33.390Z,1.00
2022-08-01T15:54:03.455Z,1.00
2022-08-01T15:56:30.956Z,1.00
2022-08-01T15:58:57.978Z,1.00
2022-08-01T16:01:26.772Z,1.00
2022-08-01T16:03:55.334Z,1.00
2022-08-01T16:06:22.560Z,1.00
2022-08-01T16:08:49.272Z,1.00
2022-08-01T16:11:16.252Z,1.00
2022-08-01T16:13:43.750Z,1.00
2022-08-01T16:16:12.069Z,1.00
2022-08-01T16:18:38.966Z,1.00
2022-08-01T16:21:05.940Z,1.00
2022-08-01T16:23:32.628Z,1.00
2022-08-01T16:25:59.426Z,1.00
2022-08-01T16:28:26.402Z,1.00
2022-08-01T16:31:01.384Z,1.00
2022-08-01T16:33:44.401Z,1.00
2022-08-01T16:36:21.417Z,1.00
2022-08-01T16:38:49.977Z,1.00
2022-08-01T16:41:19.248Z,1.00
2022-08-01T16:43:53.092Z,1.00
2022-08-01T16:46:22.378Z,1.00
2022-08-01T16:48:49.180Z,1.00
2022-08-01T16:51:15.919Z,1.00
2022-08-01T16:53:42.625Z,1.00
2022-08-01T16:56:09.360Z,1.00
2022-08-01T16:58:36.519Z,1.00
2022-08-01T17:01:58.263Z,1.00
2022-08-01T17:03:53.125Z,1.00
2022-08-01T17:06:22.638Z,1.00
2022-08-01T17:08:50.163Z,1.00
2022-08-01T17:11:17.166Z,1.00
2022-08-01T17:13:44.247Z,1.00
2022-08-01T17:16:11.663Z,1.00
2022-08-01T17:18:38.632Z,1.00
2022-08-01T17:21:05.598Z,1.00
2022-08-01T17:23:32.441Z,1.00
2022-08-01T17:26:02.846Z,1.00
2022-08-01T17:28:31.824Z,1.00
2022-08-01T17:31:01.444Z,1.00
2022-08-01T17:33:45.853Z,1.00
2022-08-01T17:36:24.260Z,1.00
2022-08-01T17:38:52.600Z,1.00
2022-08-01T17:41:22.201Z,1.00
2022-08-01T17:43:51.277Z,1.00
2022-08-01T17:46:22.518Z,1.00
2022-08-01T17:48:52.597Z,1.00
2022-08-01T17:51:22.919Z,1.00
2022-08-01T17:53:57.478Z,1.00
2022-08-01T17:56:28.972Z,1.00
2022-08-01T17:58:58.974Z,1.00
2022-08-01T18:01:27.943Z,1.00
2022-08-01T18:03:59.178Z,1.00
2022-08-01T18:06:27.344Z,1.00
2022-08-01T18:08:56.025Z,1.00
2022-08-01T18:11:24.663Z,1.00
2022-08-01T18:13:54.199Z,1.00
2022-08-01T18:16:21.886Z,1.00
2022-08-01T18:18:48.719Z,1.00
2022-08-01T18:21:15.461Z,1.00
2022-08-01T18:23:44.309Z,1.00
2022-08-01T18:26:19.791Z,1.00
2022-08-01T18:28:47.064Z,1.00
2022-08-01T18:31:16.573Z,1.00
2022-08-01T18:33:43.533Z,1.00
2022-08-01T18:36:14.098Z,1.00
2022-08-01T18:38:57.511Z,1.00
2022-08-01T18:41:24.399Z,1.00
2022-08-01T18:43:52.330Z,1.00
2022-08-01T18:46:30.782Z,1.00
2022-08-01T18:48:58.133Z,1.00
2022-08-01T18:51:26.423Z,1.00
2022-08-01T18:53:55.683Z,1.00
2022-08-01T18:56:22.551Z,1.00
2022-08-01T18:58:49.365Z,1.00
2022-08-01T19:01:16.163Z,1.00
2022-08-01T19:03:43.015Z,1.00
2022-08-01T19:06:10.048Z,1.00
2022-08-01T19:08:38.033Z,1.00
2022-08-01T19:11:05.584Z,1.00
2022-08-01T19:13:32.904Z,1.00
2022-08-01T19:16:00.138Z,1.00
2022-08-01T19:18:27.725Z,1.00
2022-08-01T19:20:54.531Z,1.00
2022-08-01T19:23:40.817Z,1.00
2022-08-01T19:26:12.488Z,1.00
2022-08-01T19:28:43.256Z,1.00
2022-08-01T19:31:13.121Z,1.00
2022-08-01T19:33:41.052Z,1.00
2022-08-01T19:36:13.699Z,1.00
2022-08-01T19:38:40.983Z,1.00
2022-08-01T19:41:08.496Z,1.00
2022-08-01T19:43:42.435Z,1.00
2022-08-01T19:46:17.318Z,1.00
2022-08-01T19:48:48.510Z,1.00
2022-08-01T19:51:20.811Z,1.00
2022-08-01T19:53:50.763Z,1.00
2022-08-01T19:56:25.742Z,1.00
2022-08-01T19:58:59.999Z,1.00
2022-08-01T20:01:27.657Z,1.00
2022-08-01T20:03:55.890Z,1.00
2022-08-01T20:06:24.544Z,1.00
2022-08-01T20:08:54.591Z,1.00
2022-08-01T20:11:23.399Z,1.00
2022-08-01T20:13:51.278Z,1.00
2022-08-01T20:16:18.317Z,1.00
2022-08-01T20:18:45.082Z,1.00
2022-08-01T20:21:12.969Z,1.00
2022-08-01T20:23:42.921Z,1.00
2022-08-01T20:26:10.152Z,1.00
2022-08-01T20:28:41.742Z,1.00
2022-08-01T20:31:09.580Z,1.00
2022-08-01T20:33:41.757Z,1.00
2022-08-01T20:36:12.131Z,1.00
2022-08-01T20:38:42.482Z,1.00
2022-08-01T20:41:09.832Z,1.00
2022-08-01T20:43:37.561Z,1.00
2022-08-01T20:46:05.678Z,1.00
2022-08-01T20:48:32.688Z,1.00
2022-08-01T20:51:16.141Z,1.00
2022-08-01T20:53:49.362Z,1.00
2022-08-01T20:56:37.836Z,1.00
2022-08-01T20:59:55.877Z,1.00
2022-08-01T21:02:31.596Z,1.00
2022-08-01T21:05:02.033Z,1.00
2022-08-01T21:07:50.210Z,1.00
2022-08-01T21:10:19.587Z,1.00
2022-08-01T21:13:21.374Z,1.00
2022-08-01T21:16:24.481Z,1.00
2022-08-01T21:19:19.233Z,1.00
2022-08-01T21:22:10.357Z,1.00
2022-08-01T21:25:06.944Z,1.00
2022-08-01T21:27:35.949Z,1.00
2022-08-01T21:30:06.003Z,1.00
2022-08-01T21:32:34.390Z,1.00
2022-08-01T21:35:02.447Z,1.00
2022-08-01T21:37:31.155Z,1.00
2022-08-01T21:39:59.417Z,1.00
2022-08-01T21:42:28.519Z,1.00
2022-08-01T21:45:01.781Z,1.00
2022-08-01T21:47:29.979Z,1.00
2022-08-01T21:50:02.276Z,1.00
2022-08-01T21:53:07.512Z,1.00
2022-08-01T21:55:56.648Z,1.00
2022-08-01T21:58:34.251Z,1.00
2022-08-01T22:01:30.105Z,1.00
2022-08-01T22:04:02.627Z,1.00
2022-08-01T22:06:34.257Z,1.00
2022-08-01T22:09:05.546Z,1.00
2022-08-01T22:11:34.467Z,1.00
2022-08-01T22:14:06.095Z,1.00
2022-08-01T22:16:34.168Z,1.00
2022-08-01T22:19:04.938Z,1.00
2022-08-01T22:21:34.322Z,1.00
2022-08-01T22:24:02.510Z,1.00
2022-08-01T22:26:29.722Z,1.00
2022-08-01T22:28:56.650Z,1.00
2022-08-01T22:31:24.134Z,1.00
2022-08-01T22:33:51.154Z,1.00
2022-08-01T22:36:19.475Z,1.00
2022-08-01T22:38:46.133Z,1.00
2022-08-01T22:41:31.105Z,1.00
2022-08-01T22:44:25.302Z,1.00
2022-08-01T22:47:02.208Z,1.00
2022-08-01T22:49:40.491Z,1.00
2022-08-01T22:52:10.232Z,1.00
2022-08-01T22:54:39.935Z,1.00
2022-08-01T22:57:24.156Z,1.00
2022-08-01T22:59:57.195Z,1.00
2022-08-01T23:02:25.713Z,1.00
2022-08-01T23:05:01.999Z,1.00
2022-08-01T23:07:33.807Z,1.00
2022-08-01T23:10:02.616Z,1.00
2022-08-01T23:12:31.228Z,1.00
2022-08-01T23:14:59.706Z,7.90
2022-08-01T23:17:31.135Z,17.20
2022-08-01T23:20:03.992Z,20.00
2022-08-01T23:22:33.170Z,23.40
2022-08-01T23:25:05.311Z,24.30
2022-08-01T23:27:51.884Z,22.40
2022-08-01T23:30:25.424Z,23.30
2022-08-01T23:32:52.120Z,26.60
2022-08-01T23:35:19.245Z,30.70
2022-08-01T23:37:45.941Z,44.90
2022-08-01T23:40:12.877Z,56.90
2022-08-01T23:42:39.556Z,67.80
2022-08-01T23:45:07.545Z,70.40
2022-08-01T23:47:34.254Z,72.20
2022-08-01T23:50:00.949Z,68.00
2022-08-01T23:52:32.164Z,71.10
2022-08-01T23:55:02.110Z,82.50
2022-08-01T23:57:41.212Z,88.50
